createdAt,value
2022-10-16T00:01:24.804Z,70.09
2022-10-16T00:03:52.744Z,70.19
2022-10-16T00:06:21.633Z,69.75
2022-10-16T00:08:49.184Z,70.00
2022-10-16T00:11:17.578Z,70.05
2022-10-16T00:13:46.570Z,69.94
2022-10-16T00:16:14.511Z,70.28
2022-10-16T00:18:41.951Z,69.82
2022-10-16T00:21:14.514Z,70.38
2022-10-16T00:23:41.512Z,70.22
2022-10-16T00:26:12.126Z,70.40
2022-10-16T00:28:39.759Z,70.25
2022-10-16T00:31:09.007Z,70.75
2022-10-16T00:33:37.101Z,70.87
2022-10-16T00:36:05.778Z,70.70
2022-10-16T00:38:32.998Z,70.69
2022-10-16T00:41:00.326Z,71.14
2022-10-16T00:43:36.869Z,70.88
2022-10-16T00:46:07.306Z,70.71
2022-10-16T00:48:34.419Z,70.86
2022-10-16T00:51:01.385Z,70.98
2022-10-16T00:53:29.113Z,71.11
2022-10-16T00:55:56.589Z,71.00
2022-10-16T00:58:23.681Z,71.15
2022-10-16T01:00:50.690Z,71.57
2022-10-16T01:03:30.170Z,71.81
2022-10-16T01:06:16.335Z,71.05
2022-10-16T01:08:58.470Z,71.65
2022-10-16T01:11:38.594Z,71.32
2022-10-16T01:14:25.663Z,71.38
2022-10-16T01:17:01.754Z,71.08
2022-10-16T01:19:51.678Z,71.18
2022-10-16T01:22:21.521Z,70.72
2022-10-16T01:24:51.077Z,71.00
2022-10-16T01:27:29.738Z,70.98
2022-10-16T01:30:11.132Z,71.02
2022-10-16T01:32:48.185Z,70.59
2022-10-16T01:35:30.977Z,71.19
2022-10-16T01:38:06.290Z,70.86
2022-10-16T01:40:39.527Z,70.96
2022-10-16T01:43:11.942Z,70.74
2022-10-16T01:45:39.758Z,70.69
2022-10-16T01:48:09.253Z,70.68
2022-10-16T01:50:41.224Z,70.57
2022-10-16T01:53:10.397Z,70.74
2022-10-16T01:55:42.662Z,70.59
2022-10-16T01:58:11.653Z,70.78
2022-10-16T02:00:42.980Z,70.57
2022-10-16T02:03:12.497Z,70.14
2022-10-16T02:05:59.870Z,70.30
2022-10-16T02:08:31.207Z,70.58
2022-10-16T02:10:59.477Z,70.56
2022-10-16T02:13:35.630Z,70.51
2022-10-16T02:16:02.703Z,70.41
2022-10-16T02:18:32.098Z,69.92
2022-10-16T02:21:03.814Z,70.69
2022-10-16T02:23:49.853Z,70.54
2022-10-16T02:26:22.315Z,70.73
2022-10-16T02:28:55.891Z,70.96
2022-10-16T02:31:29.393Z,70.80
2022-10-16T02:34:00.121Z,70.64
2022-10-16T02:36:28.552Z,70.82
2022-10-16T02:38:56.237Z,70.64
2022-10-16T02:41:24.805Z,70.66
2022-10-16T02:43:51.724Z,70.76
2022-10-16T02:46:19.783Z,70.86
2022-10-16T02:48:46.787Z,70.70
2022-10-16T02:51:14.134Z,70.95
2022-10-16T02:53:41.231Z,71.04
2022-10-16T02:56:08.675Z,71.48
2022-10-16T02:58:35.589Z,71.09
2022-10-16T03:01:02.491Z,71.09
2022-10-16T03:03:29.499Z,70.49
2022-10-16T03:05:56.683Z,70.94
2022-10-16T03:08:26.825Z,70.90
2022-10-16T03:10:54.194Z,70.91
2022-10-16T03:13:21.846Z,70.69
2022-10-16T03:15:49.038Z,70.83
2022-10-16T03:18:16.166Z,70.87
2022-10-16T03:20:44.297Z,70.77
2022-10-16T03:23:11.560Z,70.65
2022-10-16T03:25:38.849Z,70.86
2022-10-16T03:28:06.790Z,70.88
2022-10-16T03:30:33.754Z,70.88
2022-10-16T03:33:00.722Z,70.57
2022-10-16T03:35:27.654Z,70.20
2022-10-16T03:37:54.704Z,70.62
2022-10-16T03:40:22.065Z,70.21
2022-10-16T03:42:49.104Z,70.65
2022-10-16T03:45:16.034Z,70.50
2022-10-16T03:47:43.031Z,70.87
2022-10-16T03:50:10.455Z,70.81
2022-10-16T03:52:37.444Z,70.92
2022-10-16T03:55:04.703Z,70.80
2022-10-16T03:57:31.618Z,71.10
2022-10-16T03:59:58.587Z,70.85
2022-10-16T04:02:25.653Z,71.11
2022-10-16T04:04:52.883Z,71.25
2022-10-16T04:07:19.890Z,71.28
2022-10-16T04:09:46.834Z,71.07
2022-10-16T04:12:13.769Z,70.75
2022-10-16T04:14:40.718Z,71.33
2022-10-16T04:17:07.658Z,71.19
2022-10-16T04:19:34.573Z,71.51
2022-10-16T04:22:01.517Z,71.48
2022-10-16T04:24:28.437Z,71.52
2022-10-16T04:26:55.388Z,71.61
2022-10-16T04:29:22.533Z,71.72
2022-10-16T04:31:49.523Z,71.53
2022-10-16T04:34:16.483Z,72.15
2022-10-16T04:36:43.413Z,72.39
2022-10-16T04:39:10.345Z,72.74
2022-10-16T04:41:37.267Z,72.91
2022-10-16T04:44:04.226Z,72.91
2022-10-16T04:46:31.239Z,73.01
2022-10-16T04:48:58.302Z,73.33
2022-10-16T04:51:25.490Z,73.00
2022-10-16T04:53:52.586Z,73.30
2022-10-16T04:56:19.761Z,73.49
2022-10-16T04:58:46.834Z,72.82
2022-10-16T05:01:14.825Z,73.52
2022-10-16T05:03:41.777Z,73.89
2022-10-16T05:06:09.051Z,73.93
2022-10-16T05:08:36.062Z,74.11
2022-10-16T05:11:03.211Z,74.11
2022-10-16T05:13:30.191Z,74.01
2022-10-16T05:15:57.277Z,74.00
2022-10-16T05:18:24.301Z,73.98
2022-10-16T05:20:51.241Z,73.95
2022-10-16T05:23:18.248Z,73.96
2022-10-16T05:25:52.900Z,74.29
2022-10-16T05:28:19.932Z,74.03
2022-10-16T05:30:46.811Z,74.26
2022-10-16T05:33:14.689Z,74.36
2022-10-16T05:35:41.784Z,73.91
2022-10-16T05:38:08.743Z,74.00
2022-10-16T05:40:36.268Z,73.54
2022-10-16T05:43:03.389Z,73.47
2022-10-16T05:45:30.347Z,73.54
2022-10-16T05:47:57.501Z,73.07
2022-10-16T05:50:24.444Z,73.12
2022-10-16T05:52:51.395Z,72.71
2022-10-16T05:55:18.326Z,73.03
2022-10-16T05:57:45.470Z,73.25
2022-10-16T06:00:12.658Z,72.52
2022-10-16T06:02:39.850Z,72.68
2022-10-16T06:05:07.064Z,72.63
2022-10-16T06:07:37.415Z,72.35
2022-10-16T06:10:05.744Z,72.67
2022-10-16T06:12:32.691Z,72.30
2022-10-16T06:14:59.627Z,72.21
2022-10-16T06:17:26.750Z,72.25
2022-10-16T06:19:53.835Z,72.33
2022-10-16T06:22:20.785Z,71.56
2022-10-16T06:24:48.933Z,71.67
2022-10-16T06:27:15.903Z,71.12
2022-10-16T06:29:44.394Z,71.38
2022-10-16T06:32:11.370Z,70.76
2022-10-16T06:34:40.639Z,70.70
2022-10-16T06:37:10.235Z,69.76
2022-10-16T06:39:37.224Z,69.54
2022-10-16T06:42:04.172Z,69.86
2022-10-16T06:44:31.123Z,68.76
2022-10-16T06:46:58.051Z,69.62
2022-10-16T06:49:25.194Z,68.98
2022-10-16T06:51:52.188Z,69.26
2022-10-16T06:54:19.323Z,69.60
2022-10-16T06:56:46.270Z,69.63
2022-10-16T06:59:13.201Z,69.46
2022-10-16T07:01:40.138Z,69.08
2022-10-16T07:04:07.185Z,68.90
2022-10-16T07:06:35.197Z,68.62
2022-10-16T07:09:07.430Z,68.24
2022-10-16T07:11:34.854Z,68.13
2022-10-16T07:14:01.938Z,68.46
2022-10-16T07:16:31.331Z,68.39
2022-10-16T07:19:02.578Z,67.56
2022-10-16T07:21:32.264Z,67.51
2022-10-16T07:24:02.577Z,67.61
2022-10-16T07:26:32.474Z,66.74
2022-10-16T07:28:59.803Z,66.91
2022-10-16T07:31:26.854Z,66.83
2022-10-16T07:33:54.229Z,66.79
2022-10-16T07:36:22.419Z,66.26
2022-10-16T07:38:51.030Z,65.78
2022-10-16T07:41:21.266Z,66.68
2022-10-16T07:43:55.725Z,66.21
2022-10-16T07:46:24.190Z,66.27
2022-10-16T07:48:52.203Z,66.28
2022-10-16T07:51:21.396Z,66.38
2022-10-16T07:53:49.097Z,65.62
2022-10-16T07:56:17.486Z,66.50
2022-10-16T07:58:44.756Z,65.98
2022-10-16T08:01:14.696Z,66.09
2022-10-16T08:03:50.955Z,65.42
2022-10-16T08:06:22.100Z,65.64
2022-10-16T08:08:52.618Z,64.30
2022-10-16T08:11:19.589Z,65.28
2022-10-16T08:13:46.670Z,64.30
2022-10-16T08:16:13.706Z,63.39
2022-10-16T08:18:41.992Z,63.39
2022-10-16T08:21:20.091Z,63.27
2022-10-16T08:23:52.877Z,63.16
2022-10-16T08:26:23.937Z,61.99
2022-10-16T08:28:52.809Z,62.26
2022-10-16T08:31:20.126Z,62.32
2022-10-16T08:33:48.328Z,61.76
2022-10-16T08:36:16.994Z,62.73
2022-10-16T08:38:43.987Z,60.95
2022-10-16T08:41:21.507Z,60.31
2022-10-16T08:44:03.522Z,60.21
2022-10-16T08:46:36.561Z,59.99
2022-10-16T08:49:05.370Z,59.41
2022-10-16T08:51:38.047Z,59.82
2022-10-16T08:54:24.874Z,59.98
2022-10-16T08:56:52.098Z,60.34
2022-10-16T08:59:20.558Z,59.42
2022-10-16T09:01:51.343Z,59.73
2022-10-16T09:04:36.757Z,58.54
2022-10-16T09:07:10.648Z,59.19
2022-10-16T09:10:15.293Z,59.36
2022-10-16T09:12:55.496Z,60.01
2022-10-16T09:15:46.843Z,60.21
2022-10-16T09:18:28.688Z,60.49
2022-10-16T09:21:19.681Z,60.58
2022-10-16T09:23:48.425Z,60.87
2022-10-16T09:26:17.634Z,60.96
2022-10-16T09:28:44.888Z,61.17
2022-10-16T09:31:21.420Z,61.80
2022-10-16T09:33:59.230Z,61.56
2022-10-16T09:36:28.779Z,61.64
2022-10-16T09:39:07.607Z,61.02
2022-10-16T09:41:41.181Z,61.44
2022-10-16T09:44:29.339Z,61.69
2022-10-16T09:47:19.372Z,61.05
2022-10-16T09:49:53.667Z,61.56
2022-10-16T09:52:21.414Z,61.65
2022-10-16T09:55:00.318Z,61.73
2022-10-16T09:57:28.239Z,61.25
2022-10-16T09:59:59.799Z,60.35
2022-10-16T10:02:41.728Z,59.87
2022-10-16T10:05:29.767Z,58.98
2022-10-16T10:08:03.501Z,59.25
2022-10-16T10:10:33.250Z,59.64
2022-10-16T10:13:00.759Z,59.11
2022-10-16T10:15:42.696Z,58.54
2022-10-16T10:18:22.951Z,58.67
2022-10-16T10:21:01.701Z,58.48
2022-10-16T10:23:31.211Z,59.21
2022-10-16T10:26:11.285Z,58.46
2022-10-16T10:29:00.542Z,58.84
2022-10-16T10:31:51.986Z,58.76
2022-10-16T10:34:33.939Z,58.00
2022-10-16T10:37:30.110Z,57.44
2022-10-16T10:40:46.887Z,57.00
2022-10-16T10:43:49.186Z,56.64
2022-10-16T10:46:40.892Z,57.03
2022-10-16T10:49:18.390Z,57.39
2022-10-16T10:52:23.849Z,56.60
2022-10-16T10:55:00.460Z,57.14
2022-10-16T10:57:38.887Z,56.60
2022-10-16T11:00:32.265Z,55.67
2022-10-16T11:03:21.982Z,55.11
2022-10-16T11:05:57.930Z,55.28
2022-10-16T11:08:33.926Z,55.62
2022-10-16T11:11:11.236Z,56.11
2022-10-16T11:13:47.079Z,56.61
2022-10-16T11:16:23.349Z,56.76
2022-10-16T11:19:19.691Z,56.47
2022-10-16T11:22:05.930Z,56.31
2022-10-16T11:25:01.046Z,55.93
2022-10-16T11:27:48.175Z,56.71
2022-10-16T11:30:25.567Z,56.09
2022-10-16T11:33:13.584Z,54.81
2022-10-16T11:35:46.906Z,55.89
2022-10-16T11:38:52.785Z,55.09
2022-10-16T11:41:33.340Z,55.60
2022-10-16T11:44:18.976Z,55.83
2022-10-16T11:47:57.453Z,56.14
2022-10-16T11:50:38.688Z,54.79
2022-10-16T11:53:18.460Z,55.92
2022-10-16T11:55:47.498Z,55.95
2022-10-16T11:58:28.548Z,54.89
2022-10-16T12:01:16.762Z,55.19
2022-10-16T12:04:22.043Z,55.32
2022-10-16T12:07:25.485Z,55.96
2022-10-16T12:09:52.493Z,56.18
2022-10-16T12:12:37.990Z,56.47
2022-10-16T12:15:57.621Z,56.32
2022-10-16T12:18:25.702Z,56.42
2022-10-16T12:21:05.667Z,56.66
2022-10-16T12:23:34.090Z,56.80
2022-10-16T12:26:03.770Z,57.04
2022-10-16T12:28:33.250Z,56.57
2022-10-16T12:31:06.822Z,56.75
2022-10-16T12:33:36.758Z,56.57
2022-10-16T12:36:12.354Z,56.85
2022-10-16T12:38:48.678Z,56.42
2022-10-16T12:41:30.118Z,56.82
2022-10-16T12:43:58.308Z,57.20
2022-10-16T12:46:31.310Z,56.94
2022-10-16T12:49:13.290Z,56.71
2022-10-16T12:51:42.269Z,57.15
2022-10-16T12:54:18.475Z,56.07
2022-10-16T12:57:03.579Z,56.23
2022-10-16T12:59:55.216Z,56.50
2022-10-16T13:02:55.881Z,56.26
2022-10-16T13:08:13.877Z,56.23
2022-10-16T13:11:21.503Z,55.44
2022-10-16T13:14:06.021Z,56.12
2022-10-16T13:16:42.144Z,55.62
2022-10-16T13:19:29.815Z,56.34
2022-10-16T13:22:25.235Z,55.79
2022-10-16T13:25:04.200Z,56.31
2022-10-16T13:27:51.359Z,56.34
2022-10-16T13:30:24.629Z,56.92
2022-10-16T13:33:15.795Z,56.34
2022-10-16T13:35:54.783Z,56.35
2022-10-16T13:38:28.386Z,57.10
2022-10-16T13:41:03.808Z,57.32
2022-10-16T13:43:47.096Z,57.24
2022-10-16T13:46:16.439Z,57.15
2022-10-16T13:48:43.896Z,58.04
2022-10-16T13:51:17.984Z,58.35
2022-10-16T13:53:46.788Z,58.46
2022-10-16T13:56:28.857Z,58.49
2022-10-16T13:59:03.850Z,57.75
2022-10-16T14:01:35.055Z,58.58
2022-10-16T14:04:08.553Z,59.21
2022-10-16T14:06:37.772Z,58.87
2022-10-16T14:09:31.924Z,59.35
2022-10-16T14:12:12.398Z,59.31
2022-10-16T14:14:45.323Z,59.40
2022-10-16T14:17:34.179Z,59.13
2022-10-16T14:20:06.694Z,59.32
2022-10-16T14:22:38.441Z,59.71
2022-10-16T14:25:20.801Z,59.91
2022-10-16T14:27:58.717Z,59.95
2022-10-16T14:30:25.977Z,60.36
2022-10-16T14:33:02.375Z,60.49
2022-10-16T14:35:33.834Z,60.34
2022-10-16T14:38:02.590Z,60.71
2022-10-16T14:40:32.764Z,60.80
2022-10-16T14:43:01.157Z,61.20
2022-10-16T14:45:32.352Z,60.51
2022-10-16T14:48:02.239Z,61.30
2022-10-16T14:50:29.882Z,61.20
2022-10-16T14:52:57.345Z,61.57
2022-10-16T14:55:25.274Z,61.50
2022-10-16T14:57:55.587Z,61.81
2022-10-16T15:00:25.923Z,61.83
2022-10-16T15:02:52.932Z,62.35
2022-10-16T15:05:26.242Z,62.42
2022-10-16T15:07:55.831Z,62.22
2022-10-16T15:10:25.109Z,62.25
2022-10-16T15:12:52.821Z,62.79
2022-10-16T15:15:38.567Z,62.57
2022-10-16T15:18:06.162Z,62.91
2022-10-16T15:20:36.381Z,63.31
2022-10-16T15:23:27.812Z,63.59
2022-10-16T15:25:56.427Z,63.62
2022-10-16T15:28:24.740Z,63.87
2022-10-16T15:30:56.670Z,64.57
2022-10-16T15:33:28.758Z,64.93
2022-10-16T15:35:56.202Z,64.54
2022-10-16T15:38:23.973Z,65.01
2022-10-16T15:40:51.233Z,65.45
2022-10-16T15:43:18.482Z,65.86
2022-10-16T15:45:45.867Z,65.70
2022-10-16T15:48:14.923Z,65.39
2022-10-16T15:53:11.488Z,65.05
2022-10-16T15:55:39.163Z,65.99
2022-10-16T15:58:06.818Z,66.18
2022-10-16T16:00:34.120Z,66.02
2022-10-16T16:03:01.106Z,65.45
2022-10-16T16:05:28.870Z,65.98
2022-10-16T16:07:55.879Z,66.33
2022-10-16T16:10:22.896Z,66.36
2022-10-16T16:12:54.205Z,66.83
2022-10-16T16:15:23.398Z,66.88
2022-10-16T16:17:50.757Z,66.83
2022-10-16T16:20:17.890Z,66.60
2022-10-16T16:22:44.878Z,67.17
2022-10-16T16:25:12.272Z,66.46
2022-10-16T16:27:41.611Z,66.96
2022-10-16T16:30:09.106Z,66.70
2022-10-16T16:32:36.739Z,67.46
2022-10-16T16:35:04.984Z,67.39
2022-10-16T16:37:32.217Z,67.29
2022-10-16T16:40:01.920Z,67.68
2022-10-16T16:42:29.248Z,67.30
2022-10-16T16:44:56.385Z,66.95
2022-10-16T16:47:23.809Z,67.27
2022-10-16T16:49:51.063Z,67.22
2022-10-16T16:52:18.204Z,67.06
2022-10-16T16:54:46.261Z,66.92
2022-10-16T16:57:13.224Z,67.48
2022-10-16T16:59:40.255Z,67.52
2022-10-16T17:02:07.384Z,67.84
2022-10-16T17:04:34.525Z,67.45
2022-10-16T17:07:01.490Z,67.86
2022-10-16T17:09:28.531Z,67.68
2022-10-16T17:11:55.513Z,68.18
2022-10-16T17:14:22.458Z,68.00
2022-10-16T17:16:50.130Z,67.76
2022-10-16T17:19:19.256Z,67.60
2022-10-16T17:21:48.973Z,68.03
2022-10-16T17:24:16.431Z,68.13
2022-10-16T17:26:49.338Z,68.43
2022-10-16T17:29:18.816Z,67.99
2022-10-16T17:31:46.560Z,68.33
2022-10-16T17:34:13.820Z,68.06
2022-10-16T17:36:47.209Z,68.41
2022-10-16T17:39:18.146Z,68.02
2022-10-16T17:41:46.296Z,67.99
2022-10-16T17:44:23.220Z,68.19
2022-10-16T17:46:52.931Z,68.45
2022-10-16T17:49:21.435Z,68.61
2022-10-16T17:51:54.273Z,68.18
2022-10-16T17:54:21.821Z,68.38
2022-10-16T17:56:49.082Z,68.64
2022-10-16T17:59:16.862Z,68.45
2022-10-16T18:01:46.591Z,68.61
2022-10-16T18:04:17.523Z,68.72
2022-10-16T18:06:45.959Z,69.10
2022-10-16T18:09:15.429Z,68.89
2022-10-16T18:11:42.627Z,68.58
2022-10-16T18:14:12.775Z,68.76
2022-10-16T18:16:39.969Z,68.74
2022-10-16T18:19:12.067Z,69.17
2022-10-16T18:21:38.994Z,68.71
2022-10-16T18:24:06.087Z,69.70
2022-10-16T18:26:33.512Z,69.69
2022-10-16T18:29:01.293Z,69.04
2022-10-16T18:31:28.937Z,70.32
2022-10-16T18:33:56.449Z,70.07
2022-10-16T18:36:32.962Z,70.16
2022-10-16T18:39:01.616Z,69.58
2022-10-16T18:41:29.313Z,69.80
2022-10-16T18:43:59.562Z,69.85
2022-10-16T18:46:27.360Z,69.84
2022-10-16T18:48:55.987Z,70.07
2022-10-16T18:51:29.689Z,69.84
2022-10-16T18:54:00.229Z,69.77
2022-10-16T18:56:30.720Z,69.54
2022-10-16T18:59:00.290Z,70.40
2022-10-16T19:01:30.512Z,70.52
2022-10-16T19:04:06.484Z,70.06
2022-10-16T19:06:40.318Z,70.59
2022-10-16T19:09:07.525Z,70.36
2022-10-16T19:11:40.494Z,70.33
2022-10-16T19:14:08.366Z,70.55
2022-10-16T19:16:36.520Z,70.96
2022-10-16T19:19:06.255Z,70.42
2022-10-16T19:21:36.843Z,71.62
2022-10-16T19:24:04.553Z,71.34
2022-10-16T19:26:34.808Z,70.73
2022-10-16T19:29:05.773Z,70.98
2022-10-16T19:31:33.245Z,71.13
2022-10-16T19:34:03.371Z,71.67
2022-10-16T19:36:33.086Z,72.11
2022-10-16T19:39:02.510Z,71.82
2022-10-16T19:41:30.676Z,71.45
2022-10-16T19:44:05.645Z,71.47
2022-10-16T19:46:34.062Z,71.51
2022-10-16T19:49:03.829Z,71.71
2022-10-16T19:51:31.796Z,71.63
2022-10-16T19:54:01.647Z,71.85
2022-10-16T19:56:29.843Z,72.38
2022-10-16T19:58:58.319Z,71.71
2022-10-16T20:01:27.592Z,72.23
2022-10-16T20:03:55.053Z,72.30
2022-10-16T20:06:22.273Z,72.42
2022-10-16T20:08:51.959Z,72.13
2022-10-16T20:11:28.320Z,72.58
2022-10-16T20:13:55.783Z,72.70
2022-10-16T20:16:23.223Z,72.54
2022-10-16T20:18:51.978Z,72.68
2022-10-16T20:21:25.394Z,72.62
2022-10-16T20:23:52.633Z,72.58
2022-10-16T20:26:22.591Z,73.52
2022-10-16T20:28:50.940Z,72.50
2022-10-16T20:31:23.008Z,72.91
2022-10-16T20:33:54.127Z,73.40
2022-10-16T20:36:22.863Z,73.24
2022-10-16T20:38:49.912Z,73.21
2022-10-16T20:41:18.062Z,73.54
2022-10-16T20:43:47.253Z,73.12
2022-10-16T20:46:17.255Z,73.43
2022-10-16T20:48:45.144Z,73.44
2022-10-16T20:51:19.503Z,73.46
2022-10-16T20:53:48.575Z,73.55
2022-10-16T20:56:18.564Z,74.06
2022-10-16T20:58:46.217Z,73.78
2022-10-16T21:01:16.738Z,73.74
2022-10-16T21:03:45.502Z,73.93
2022-10-16T21:06:12.533Z,74.30
2022-10-16T21:08:42.217Z,74.42
2022-10-16T21:11:21.796Z,74.62
2022-10-16T21:13:49.122Z,73.72
2022-10-16T21:16:16.659Z,74.27
2022-10-16T21:18:44.953Z,73.92
2022-10-16T21:21:29.561Z,74.40
2022-10-16T21:23:57.991Z,74.69
2022-10-16T21:26:26.721Z,74.74
2022-10-16T21:28:58.324Z,75.01
2022-10-16T21:31:25.622Z,74.49
2022-10-16T21:33:53.196Z,74.93
2022-10-16T21:36:23.762Z,75.03
2022-10-16T21:38:51.207Z,74.88
2022-10-16T21:41:27.245Z,75.32
2022-10-16T21:43:55.326Z,75.01
2022-10-16T21:46:26.251Z,75.00
2022-10-16T21:48:54.490Z,75.29
2022-10-16T21:51:21.467Z,74.47
2022-10-16T21:53:48.420Z,75.41
2022-10-16T21:56:17.568Z,74.80
2022-10-16T21:58:45.408Z,74.95
2022-10-16T22:01:16.123Z,75.17
2022-10-16T22:03:43.336Z,75.79
2022-10-16T22:06:12.554Z,75.36
2022-10-16T22:08:40.265Z,75.32
2022-10-16T22:11:15.281Z,75.56
2022-10-16T22:13:43.087Z,75.56
2022-10-16T22:16:11.244Z,76.38
2022-10-16T22:18:39.902Z,76.35
2022-10-16T22:21:08.108Z,76.29
2022-10-16T22:23:35.501Z,75.56
2022-10-16T22:26:08.034Z,76.27
2022-10-16T22:28:35.323Z,75.93
2022-10-16T22:31:04.808Z,76.43
2022-10-16T22:36:04.522Z,76.00
2022-10-16T22:38:32.968Z,76.67
2022-10-16T22:41:11.225Z,76.87
2022-10-16T22:43:40.176Z,76.58
2022-10-16T22:46:09.662Z,75.96
2022-10-16T22:48:37.411Z,75.97
2022-10-16T22:51:08.214Z,76.11
2022-10-16T22:53:34.916Z,76.46
2022-10-16T22:56:02.212Z,76.13
2022-10-16T22:58:29.962Z,76.34
2022-10-16T23:03:25.159Z,76.06
2022-10-16T23:05:52.469Z,76.94
2022-10-16T23:08:19.420Z,77.76
2022-10-16T23:10:48.257Z,76.98
2022-10-16T23:13:15.267Z,76.66
2022-10-16T23:15:45.697Z,76.03
2022-10-16T23:18:13.078Z,76.50
2022-10-16T23:20:40.989Z,76.81
2022-10-16T23:23:08.782Z,76.13
2022-10-16T23:25:36.829Z,76.45
2022-10-16T23:28:04.607Z,76.61
2022-10-16T23:30:31.647Z,76.13
2022-10-16T23:32:58.611Z,75.58
2022-10-16T23:35:25.605Z,76.24
2022-10-16T23:37:52.607Z,76.53
2022-10-16T23:40:19.553Z,76.77
2022-10-16T23:42:46.527Z,76.88
2022-10-16T23:45:13.501Z,76.86
2022-10-16T23:47:41.893Z,76.90
2022-10-16T23:50:10.083Z,77.16
2022-10-16T23:52:37.068Z,76.77
2022-10-16T23:55:04.927Z,76.68
2022-10-16T23:57:31.889Z,76.82
2022-10-16T23:59:58.808Z,76.83
